Es ist keine erhöhte Aufmerksamkeit aufgrund des Wetters notwendig.    Es gibt keine Warnungen.
Webcam Vorhersage DWD Regenradar Wetterlage NRW Blitze Wind GFS-Modell
webcam


Kleve - Düffelward SSO more information Kleve - Düffelward SSO


Goch more information Goch


Weitere Templates dieser Seite und andere Webseiten:

Meteotemplate

Awekas - Template

weather34 - Template

Wetter im Erzgebirge


te
World Weather Websites
Bo-Rox Wetter Topsites List
 

METAR-Meldungen aus der Umgebung

   
EDLV - Goch
Aktualisierung: 26-05-2019 10:50
Klar  
Klar  
   Wind: SSW 14.8 km/h
Wind: SSW 14.8 km/h
Temperatur: 18°C
Taupunkt: 12°C
Luftfeuchte: 68%
Luftdruck: 1014 hPa
Sichtbarkeit: More than 10 km
Bewölkung: Klar
EDLV 260850Z 20008KT CAVOK 18/12 Q1014
EDLV - Emmerich
Aktualisierung: 26-05-2019 10:50
Klar  
Klar  
   Wind: SSW 14.8 km/h
Wind: SSW 14.8 km/h
Temperatur: 18°C
Taupunkt: 12°C
Luftfeuchte: 68%
Luftdruck: 1014 hPa
Sichtbarkeit: More than 10 km
Bewölkung: Klar
EDLV 260850Z 20008KT CAVOK 18/12 Q1014
EHDL - Nijmegen
Aktualisierung: 26-05-2019 10:55
Bewölkt  
Bewölkt  
   Wind: SSW 18.5 km/h
Wind: SSW 18.5 km/h
Temperatur: 17°C
Taupunkt: 11°C
Luftfeuchte: 68%
Luftdruck: 1013 hPa
Bewölkt: Bewölkt
Sichtbarkeit: More than 10 km
Bewölkung: Bewölkt 6100 ft
EHDL 260855Z AUTO 21010KT 120V290 9999 OVC061 17/11 Q1013 BLU
EHDL - Arnhem
Aktualisierung: 26-05-2019 10:55
Bewölkt  
Bewölkt  
   Wind: SSW 18.5 km/h
Wind: SSW 18.5 km/h
Temperatur: 17°C
Taupunkt: 11°C
Luftfeuchte: 68%
Luftdruck: 1013 hPa
Bewölkt: Bewölkt
Sichtbarkeit: More than 10 km
Bewölkung: Bewölkt 6100 ft
EHDL 260855Z AUTO 21010KT 120V290 9999 OVC061 17/11 Q1013 BLU
EDLV - Kalkar
Aktualisierung: 26-05-2019 10:50
Klar  
Klar  
   Wind: SSW 14.8 km/h
Wind: SSW 14.8 km/h
Temperatur: 18°C
Taupunkt: 12°C
Luftfeuchte: 68%
Luftdruck: 1014 hPa
Sichtbarkeit: More than 10 km
Bewölkung: Klar
EDLV 260850Z 20008KT CAVOK 18/12 Q1014
 

Script entwickelt von  Saratoga-weather.org Angepasst für das Template von  Weerstation Leuven

Sie finden Wetter-Infos dieser Station auch auf:

UK Metoffice

European Weather Network

WeatherCloud

Weather Underground

Germany Weather Network

AWEKAS

Neuwetter

Wettersektor

Von uns verwendete Ausrüstung:

Wetterstation
Davis Vantage Pro2

Wetterprogramm
Meteobridge

WetterComputer
Computer

Davis Vantage Pro2

Meteobridge

Computer